createdAt,value
2019-05-06T00:00:24.755Z,3.17
2019-05-06T00:02:54.532Z,3.80
2019-05-06T00:05:25.465Z,3.15
2019-05-06T00:07:54.516Z,2.80
2019-05-06T00:10:24.599Z,3.12
2019-05-06T00:12:54.330Z,3.13
2019-05-06T00:15:24.548Z,3.63
2019-05-06T00:17:53.903Z,2.80
2019-05-06T00:20:24.290Z,3.17
2019-05-06T00:22:55.449Z,2.90
2019-05-06T00:25:45.912Z,3.20
2019-05-06T00:28:31.358Z,3.33
2019-05-06T00:31:10.404Z,3.23
2019-05-06T00:33:31.085Z,3.53
2019-05-06T00:36:00.586Z,3.58
2019-05-06T00:38:30.235Z,2.90
2019-05-06T00:41:03.976Z,3.02
2019-05-06T00:43:34.457Z,2.92
2019-05-06T00:46:04.687Z,3.50
2019-05-06T00:48:34.080Z,3.30
2019-05-06T00:51:04.532Z,3.13
2019-05-06T00:53:34.960Z,3.17
2019-05-06T00:56:04.574Z,2.43
2019-05-06T00:58:34.792Z,3.12
2019-05-06T01:01:04.617Z,2.83
2019-05-06T01:03:34.750Z,3.65
2019-05-06T01:06:03.926Z,3.20
2019-05-06T01:08:34.773Z,2.80
2019-05-06T01:11:04.048Z,2.97
2019-05-06T01:13:56.909Z,2.67
2019-05-06T01:16:25.518Z,2.72
2019-05-06T01:18:54.293Z,3.10
2019-05-06T01:21:23.838Z,3.23
2019-05-06T01:23:54.269Z,4.03
2019-05-06T01:26:24.257Z,3.00
2019-05-06T01:28:54.565Z,2.60
2019-05-06T01:31:24.855Z,2.50
2019-05-06T01:33:53.946Z,2.67
2019-05-06T01:36:24.787Z,3.00
2019-05-06T01:39:05.699Z,3.43
2019-05-06T01:41:53.634Z,2.90
2019-05-06T01:44:24.295Z,2.70
2019-05-06T01:46:54.163Z,2.33
2019-05-06T01:49:24.512Z,2.93
2019-05-06T01:51:54.638Z,3.47
2019-05-06T01:54:24.868Z,3.45
2019-05-06T01:56:53.993Z,3.35
2019-05-06T01:59:24.462Z,3.75
2019-05-06T02:01:58.060Z,3.80
2019-05-06T02:04:24.460Z,4.23
2019-05-06T02:06:54.640Z,3.80
2019-05-06T02:09:24.707Z,3.25
2019-05-06T02:11:54.335Z,3.98
2019-05-06T02:14:24.635Z,3.83
2019-05-06T02:16:54.570Z,3.40
2019-05-06T02:19:24.184Z,3.63
2019-05-06T02:22:08.777Z,3.83
2019-05-06T02:24:41.069Z,3.75
2019-05-06T02:27:10.154Z,3.50
2019-05-06T02:29:44.915Z,3.72
2019-05-06T02:32:27.061Z,3.40
2019-05-06T02:34:57.534Z,3.87
2019-05-06T02:37:38.131Z,3.00
2019-05-06T02:40:08.476Z,3.52
2019-05-06T02:42:37.513Z,4.43
2019-05-06T02:45:06.142Z,4.15
2019-05-06T02:47:44.049Z,4.65
2019-05-06T02:50:15.791Z,4.05
2019-05-06T02:52:44.446Z,3.60
2019-05-06T02:55:13.629Z,3.85
2019-05-06T02:57:44.092Z,3.63
2019-05-06T03:00:14.375Z,4.47
2019-05-06T03:02:47.550Z,4.17
2019-05-06T03:05:13.287Z,3.62
2019-05-06T03:07:43.458Z,3.90
2019-05-06T03:10:13.662Z,3.97
2019-05-06T03:12:43.169Z,3.62
2019-05-06T03:15:16.218Z,3.85
2019-05-06T03:17:44.557Z,4.03
2019-05-06T03:20:23.535Z,3.83
2019-05-06T03:23:03.524Z,4.47
2019-05-06T03:25:33.299Z,3.47
2019-05-06T03:28:04.149Z,4.00
2019-05-06T03:30:36.248Z,4.60
2019-05-06T03:35:44.137Z,3.87
2019-05-06T03:38:03.844Z,4.63
2019-05-06T03:40:36.078Z,4.20
2019-05-06T03:43:02.941Z,3.60
2019-05-06T03:45:56.517Z,4.07
2019-05-06T03:48:33.262Z,3.60
2019-05-06T03:51:04.151Z,3.30
2019-05-06T03:53:33.292Z,3.57
2019-05-06T03:56:03.339Z,3.65
2019-05-06T03:58:34.601Z,3.93
2019-05-06T04:01:03.877Z,3.60
2019-05-06T04:03:44.192Z,3.42
2019-05-06T04:06:04.391Z,4.00
2019-05-06T04:08:34.447Z,3.50
2019-05-06T04:11:03.423Z,4.10
2019-05-06T04:13:33.365Z,1.67
2019-05-06T04:16:13.793Z,4.37
2019-05-06T04:18:46.334Z,3.60
2019-05-06T04:21:24.183Z,4.10
2019-05-06T04:24:24.298Z,3.67
2019-05-06T04:27:07.298Z,1.20
2019-05-06T04:29:36.021Z,2.97
2019-05-06T04:32:04.574Z,4.40
2019-05-06T04:34:33.362Z,3.45
2019-05-06T04:37:03.495Z,3.70
2019-05-06T04:39:33.059Z,3.73
2019-05-06T04:42:03.447Z,2.27
2019-05-06T04:44:33.094Z,4.27
2019-05-06T04:47:05.002Z,3.57
2019-05-06T04:49:33.285Z,3.22
2019-05-06T04:52:03.678Z,3.40
2019-05-06T04:54:33.613Z,1.80
2019-05-06T04:57:05.146Z,4.20
2019-05-06T04:59:33.753Z,3.55
2019-05-06T05:02:02.791Z,1.10
2019-05-06T05:04:36.390Z,3.33
2019-05-06T05:07:03.475Z,3.33
2019-05-06T05:09:32.654Z,4.00
2019-05-06T05:12:06.574Z,1.87
2019-05-06T05:14:42.283Z,3.23
2019-05-06T05:17:23.089Z,1.37
2019-05-06T05:19:52.333Z,1.77
2019-05-06T05:22:21.915Z,3.07
2019-05-06T05:24:52.101Z,3.47
2019-05-06T05:27:21.915Z,4.30
2019-05-06T05:29:52.202Z,3.47
2019-05-06T05:32:22.525Z,2.10
2019-05-06T05:34:52.256Z,2.07
2019-05-06T05:37:22.735Z,2.50
2019-05-06T05:39:52.034Z,2.63
2019-05-06T05:42:30.189Z,2.70
2019-05-06T05:44:59.390Z,3.50
2019-05-06T05:47:27.982Z,3.40
2019-05-06T05:50:24.927Z,3.07
2019-05-06T05:52:53.562Z,3.80
2019-05-06T05:55:22.161Z,3.70
2019-05-06T05:57:51.909Z,4.20
2019-05-06T06:00:22.429Z,4.58
2019-05-06T06:02:53.041Z,3.77
2019-05-06T06:05:21.912Z,4.20
2019-05-06T06:07:52.882Z,4.83
2019-05-06T06:10:30.269Z,4.17
2019-05-06T06:13:02.056Z,5.08
2019-05-06T06:15:48.967Z,5.17
2019-05-06T06:18:25.742Z,4.85
2019-05-06T06:21:27.158Z,5.83
2019-05-06T06:23:52.761Z,5.43
2019-05-06T06:26:22.703Z,4.70
2019-05-06T06:28:52.246Z,5.17
2019-05-06T06:31:33.608Z,5.43
2019-05-06T06:34:08.990Z,5.90
2019-05-06T06:36:55.533Z,4.90
2019-05-06T06:39:28.497Z,5.00
2019-05-06T06:41:57.100Z,5.05
2019-05-06T06:44:29.497Z,4.62
2019-05-06T06:46:58.436Z,5.72
2019-05-06T06:49:27.033Z,5.20
2019-05-06T06:51:55.648Z,5.17
2019-05-06T06:54:24.344Z,5.08
2019-05-06T06:57:08.679Z,4.50
2019-05-06T07:00:12.455Z,5.37
2019-05-06T07:02:52.620Z,5.20
2019-05-06T07:05:38.036Z,5.50
2019-05-06T07:08:06.653Z,5.03
2019-05-06T07:10:44.444Z,4.77
2019-05-06T07:13:17.085Z,4.55
2019-05-06T07:15:45.601Z,5.12
2019-05-06T07:18:15.214Z,4.53
2019-05-06T07:21:09.194Z,5.20
2019-05-06T07:23:37.961Z,4.10
2019-05-06T07:26:06.642Z,4.53
2019-05-06T07:28:35.260Z,3.72
2019-05-06T07:31:17.266Z,1.90
2019-05-06T07:33:34.079Z,1.70
2019-05-06T07:36:02.782Z,1.87
2019-05-06T07:38:32.615Z,3.65
2019-05-06T07:41:09.901Z,1.97
2019-05-06T07:43:53.993Z,1.27
2019-05-06T07:46:54.689Z,1.87
2019-05-06T07:49:23.597Z,2.70
2019-05-06T07:51:53.025Z,1.62
2019-05-06T07:54:22.361Z,2.97
2019-05-06T07:56:52.703Z,2.97
2019-05-06T07:59:22.445Z,2.05
2019-05-06T08:01:53.869Z,2.98
2019-05-06T08:04:24.849Z,2.58
2019-05-06T08:06:53.355Z,1.10
2019-05-06T08:09:22.219Z,3.87
2019-05-06T08:11:52.894Z,2.33
2019-05-06T08:14:22.552Z,1.50
2019-05-06T08:16:58.577Z,1.57
2019-05-06T08:19:27.165Z,1.55
2019-05-06T08:21:57.578Z,2.65
2019-05-06T08:24:26.225Z,2.10
2019-05-06T08:26:54.881Z,1.15
2019-05-06T08:29:23.549Z,1.15
2019-05-06T08:31:52.478Z,3.33
2019-05-06T08:34:22.578Z,1.30
2019-05-06T08:37:02.444Z,1.70
2019-05-06T08:39:32.641Z,3.75
2019-05-06T08:42:02.657Z,2.60
2019-05-06T08:44:32.267Z,4.00
2019-05-06T08:47:02.514Z,3.33
2019-05-06T08:49:52.395Z,3.27
2019-05-06T08:52:21.689Z,2.43
2019-05-06T08:54:52.841Z,1.00
2019-05-06T08:57:22.945Z,1.62
2019-05-06T08:59:53.512Z,1.57
2019-05-06T09:02:22.839Z,3.33
2019-05-06T09:04:51.805Z,1.32
2019-05-06T09:07:23.732Z,1.53
2019-05-06T09:09:52.719Z,3.70
2019-05-06T09:12:22.310Z,4.23
2019-05-06T09:14:53.272Z,1.07
2019-05-06T09:17:22.590Z,3.17
2019-05-06T09:19:53.383Z,1.47
2019-05-06T09:22:23.511Z,1.93
2019-05-06T09:24:53.113Z,2.75
2019-05-06T09:27:42.190Z,1.37
2019-05-06T09:30:23.037Z,1.27
2019-05-06T09:32:52.167Z,1.40
2019-05-06T09:35:22.166Z,4.08
2019-05-06T09:37:53.279Z,4.50
2019-05-06T09:40:22.743Z,2.20
2019-05-06T09:42:52.160Z,4.53
2019-05-06T09:45:22.792Z,1.87
2019-05-06T09:48:03.096Z,4.23
2019-05-06T09:50:35.698Z,2.00
2019-05-06T09:53:04.410Z,1.50
2019-05-06T09:55:38.917Z,3.80
2019-05-06T09:58:08.540Z,3.73
2019-05-06T10:00:42.865Z,3.22
2019-05-06T10:03:11.855Z,2.00
2019-05-06T10:05:42.519Z,1.67
2019-05-06T10:08:12.395Z,0.87
2019-05-06T10:10:53.679Z,0.73
2019-05-06T10:13:12.811Z,1.70
2019-05-06T10:15:42.941Z,4.65
2019-05-06T10:18:13.478Z,2.03
2019-05-06T10:20:43.419Z,2.27
2019-05-06T10:23:13.117Z,1.77
2019-05-06T10:25:43.723Z,1.77
2019-05-06T10:28:37.602Z,1.40
2019-05-06T10:31:09.111Z,3.22
2019-05-06T10:33:57.978Z,1.77
2019-05-06T10:36:28.041Z,1.90
2019-05-06T10:38:59.085Z,1.87
2019-05-06T10:41:32.695Z,1.32
2019-05-06T10:44:22.619Z,3.10
2019-05-06T10:46:52.706Z,1.03
2019-05-06T10:49:22.683Z,3.73
2019-05-06T10:51:59.537Z,1.60
2019-05-06T10:54:28.138Z,2.90
2019-05-06T10:57:09.169Z,2.10
2019-05-06T10:59:37.805Z,1.00
2019-05-06T11:02:24.400Z,1.40
2019-05-06T11:04:53.171Z,1.10
2019-05-06T11:07:31.470Z,3.57
2019-05-06T11:09:53.412Z,5.00
2019-05-06T11:12:22.145Z,3.03
2019-05-06T11:14:53.186Z,1.57
2019-05-06T11:17:23.125Z,3.45
2019-05-06T11:19:53.142Z,1.83
2019-05-06T11:22:24.612Z,4.87
2019-05-06T11:24:51.716Z,2.15
2019-05-06T11:27:28.703Z,1.23
2019-05-06T11:29:53.040Z,3.03
2019-05-06T11:32:37.577Z,2.03
2019-05-06T11:35:17.649Z,2.77
2019-05-06T11:38:04.345Z,3.80
2019-05-06T11:40:33.309Z,4.65
2019-05-06T11:43:01.942Z,1.60
2019-05-06T11:45:32.227Z,1.70
2019-05-06T11:48:00.922Z,2.55
2019-05-06T11:50:29.587Z,2.30
2019-05-06T11:52:58.298Z,1.77
2019-05-06T11:55:31.692Z,2.57
2019-05-06T11:57:57.042Z,2.37
2019-05-06T12:00:33.235Z,2.17
2019-05-06T12:03:02.246Z,2.43
2019-05-06T12:05:32.885Z,2.55
2019-05-06T12:08:07.779Z,2.10
2019-05-06T12:10:33.091Z,2.30
2019-05-06T12:13:02.971Z,2.42
2019-05-06T12:15:31.704Z,2.67
2019-05-06T12:18:00.274Z,2.10
2019-05-06T12:20:28.787Z,2.70
2019-05-06T12:22:57.401Z,2.37
2019-05-06T12:25:26.002Z,2.98
2019-05-06T12:27:54.591Z,2.40
2019-05-06T12:30:24.261Z,2.55
2019-05-06T12:33:15.205Z,2.43
2019-05-06T12:35:47.170Z,2.58
2019-05-06T12:38:29.451Z,2.53
2019-05-06T12:40:53.007Z,2.63
2019-05-06T12:43:43.026Z,2.90
2019-05-06T12:46:34.814Z,3.17
2019-05-06T12:49:03.389Z,3.20
2019-05-06T12:51:32.382Z,2.33
2019-05-06T12:54:03.630Z,3.30
2019-05-06T12:56:32.294Z,2.70
2019-05-06T12:59:02.060Z,3.33
2019-05-06T13:01:34.096Z,3.67
2019-05-06T13:04:04.133Z,3.15
2019-05-06T13:06:33.464Z,2.10
2019-05-06T13:09:05.142Z,2.70
2019-05-06T13:11:34.730Z,3.33
2019-05-06T13:14:04.222Z,3.55
2019-05-06T13:16:33.560Z,2.08
2019-05-06T13:19:03.331Z,2.73
2019-05-06T13:21:32.868Z,3.52
2019-05-06T13:24:05.158Z,3.67
2019-05-06T13:26:33.855Z,4.20
2019-05-06T13:29:07.864Z,4.70
2019-05-06T13:31:36.518Z,2.17
2019-05-06T13:34:07.302Z,4.13
2019-05-06T13:36:35.955Z,1.50
2019-05-06T13:39:13.846Z,4.00
2019-05-06T13:41:38.145Z,4.45
2019-05-06T13:44:13.230Z,3.20
2019-05-06T13:46:49.620Z,2.98
2019-05-06T13:49:43.465Z,4.50
2019-05-06T13:52:13.735Z,5.73
2019-05-06T13:54:42.516Z,6.00
2019-05-06T13:57:12.475Z,4.65
2019-05-06T13:59:44.165Z,5.17
2019-05-06T14:02:24.254Z,5.10
2019-05-06T14:04:52.969Z,1.82
2019-05-06T14:07:24.176Z,5.30
2019-05-06T14:09:53.366Z,6.72
2019-05-06T14:12:22.186Z,5.53
2019-05-06T14:14:52.641Z,6.50
2019-05-06T14:17:22.356Z,5.03
2019-05-06T14:19:53.285Z,5.07
2019-05-06T14:22:23.192Z,9.93
2019-05-06T14:25:12.695Z,6.53
2019-05-06T14:27:43.466Z,5.07
2019-05-06T14:30:19.202Z,4.22
2019-05-06T14:32:47.722Z,6.10
2019-05-06T14:35:16.314Z,3.55
2019-05-06T14:37:44.851Z,5.87
2019-05-06T14:40:16.854Z,6.08
2019-05-06T14:42:45.494Z,5.60
2019-05-06T14:45:14.731Z,5.03
2019-05-06T14:47:43.581Z,6.00
2019-05-06T14:50:14.527Z,5.60
2019-05-06T14:52:43.331Z,5.28
2019-05-06T14:55:17.417Z,5.12
2019-05-06T14:57:46.014Z,4.83
2019-05-06T15:00:16.338Z,5.62
2019-05-06T15:02:45.001Z,5.13
2019-05-06T15:05:13.841Z,2.30
2019-05-06T15:07:42.526Z,2.73
2019-05-06T15:10:20.311Z,2.87
2019-05-06T15:12:42.615Z,4.10
2019-05-06T15:15:12.159Z,3.83
2019-05-06T15:17:43.006Z,2.90
2019-05-06T15:20:12.148Z,4.20
2019-05-06T15:22:42.102Z,1.85
2019-05-06T15:25:12.803Z,3.57
2019-05-06T15:27:42.609Z,4.23
2019-05-06T15:30:16.190Z,4.47
2019-05-06T15:32:45.782Z,3.72
2019-05-06T15:35:26.481Z,4.47
2019-05-06T15:37:57.957Z,3.93
2019-05-06T15:40:32.759Z,4.20
2019-05-06T15:42:56.889Z,3.02
2019-05-06T15:45:25.645Z,4.62
2019-05-06T15:47:54.246Z,1.87
2019-05-06T15:50:23.225Z,3.53
2019-05-06T15:52:53.883Z,2.80
2019-05-06T15:55:22.595Z,4.17
2019-05-06T15:57:52.666Z,2.37
2019-05-06T16:00:22.706Z,3.52
2019-05-06T16:02:53.058Z,2.20
2019-05-06T16:05:26.162Z,3.23
2019-05-06T16:07:52.949Z,3.40
2019-05-06T16:10:22.575Z,2.47
2019-05-06T16:12:53.407Z,2.30
2019-05-06T16:15:24.550Z,3.60
2019-05-06T16:17:53.073Z,1.93
2019-05-06T16:20:22.274Z,3.02
2019-05-06T16:22:54.906Z,3.40
2019-05-06T16:25:23.579Z,2.60
2019-05-06T16:27:54.795Z,2.93
2019-05-06T16:30:24.541Z,2.80
2019-05-06T16:32:53.193Z,2.27
2019-05-06T16:35:23.015Z,2.30
2019-05-06T16:37:52.081Z,2.73
2019-05-06T16:40:22.973Z,2.40
2019-05-06T16:42:54.049Z,2.73
2019-05-06T16:45:23.470Z,2.57
2019-05-06T16:47:52.347Z,2.70
2019-05-06T16:50:22.592Z,1.75
2019-05-06T16:52:52.576Z,2.50
2019-05-06T16:55:27.519Z,2.45
2019-05-06T16:58:06.992Z,2.10
2019-05-06T17:00:36.327Z,2.30
2019-05-06T17:03:16.463Z,2.50
2019-05-06T17:06:04.557Z,3.63
2019-05-06T17:08:36.315Z,5.87
2019-05-06T17:11:04.810Z,2.52
2019-05-06T17:13:37.448Z,4.57
2019-05-06T17:16:04.106Z,3.80
2019-05-06T17:18:33.130Z,1.97
2019-05-06T17:21:02.425Z,2.02
2019-05-06T17:23:32.388Z,2.37
2019-05-06T17:26:01.197Z,1.47
2019-05-06T17:28:51.903Z,1.20
2019-05-06T17:31:28.193Z,2.80
2019-05-06T17:33:57.401Z,2.58
2019-05-06T17:36:27.662Z,2.80
2019-05-06T17:38:57.026Z,2.20
2019-05-06T17:41:30.636Z,2.10
2019-05-06T17:43:55.986Z,2.30
2019-05-06T17:46:26.565Z,2.10
2019-05-06T17:49:26.305Z,1.93
2019-05-06T17:52:03.084Z,2.10
2019-05-06T17:54:32.474Z,2.00
2019-05-06T17:57:03.850Z,2.00
2019-05-06T17:59:33.154Z,2.03
2019-05-06T18:02:04.217Z,2.15
2019-05-06T18:04:34.379Z,1.70
2019-05-06T18:07:03.221Z,1.60
2019-05-06T18:09:33.447Z,1.80
2019-05-06T18:12:03.136Z,2.03
2019-05-06T18:14:33.242Z,2.20
2019-05-06T18:17:03.650Z,2.20
2019-05-06T18:19:33.602Z,2.83
2019-05-06T18:22:02.646Z,2.13
2019-05-06T18:24:33.245Z,2.43
2019-05-06T18:27:02.623Z,2.45
2019-05-06T18:29:33.603Z,2.60
2019-05-06T18:32:03.725Z,2.43
2019-05-06T18:34:33.165Z,2.85
2019-05-06T18:37:03.155Z,2.73
2019-05-06T18:39:33.690Z,2.57
2019-05-06T18:42:15.623Z,2.57
2019-05-06T18:44:33.434Z,2.20
2019-05-06T18:47:02.859Z,2.27
2019-05-06T18:49:33.588Z,2.75
2019-05-06T18:52:02.162Z,2.33
2019-05-06T18:54:33.616Z,3.33
2019-05-06T18:57:04.336Z,3.25
2019-05-06T18:59:32.990Z,2.92
2019-05-06T19:02:02.186Z,3.00
2019-05-06T19:04:52.312Z,1.83
2019-05-06T19:07:22.099Z,2.50
2019-05-06T19:10:02.991Z,1.15
2019-05-06T19:12:40.298Z,2.60
2019-05-06T19:15:03.375Z,3.00
2019-05-06T19:17:33.563Z,2.60
2019-05-06T19:20:02.621Z,2.50
2019-05-06T19:22:32.943Z,2.70
2019-05-06T19:25:02.641Z,2.80
2019-05-06T19:27:32.841Z,2.60
2019-05-06T19:30:02.545Z,2.17
2019-05-06T19:32:34.542Z,2.50
2019-05-06T19:35:02.862Z,2.90
2019-05-06T19:37:33.060Z,2.52
2019-05-06T19:40:02.853Z,2.70
2019-05-06T19:42:43.673Z,2.47
2019-05-06T19:45:03.470Z,2.97
2019-05-06T19:47:34.013Z,3.27
2019-05-06T19:50:02.899Z,2.70
2019-05-06T19:52:32.631Z,2.70
2019-05-06T19:55:03.154Z,2.57
2019-05-06T19:57:32.371Z,2.33
2019-05-06T20:00:03.197Z,2.70
2019-05-06T20:02:52.677Z,2.80
2019-05-06T20:05:31.693Z,2.87
2019-05-06T20:08:19.226Z,2.95
2019-05-06T20:10:57.438Z,2.80
2019-05-06T20:13:26.326Z,2.50
2019-05-06T20:15:54.921Z,2.90
2019-05-06T20:18:23.607Z,3.20
2019-05-06T20:20:52.821Z,2.37
2019-05-06T20:23:23.180Z,2.20
2019-05-06T20:25:52.900Z,2.63
2019-05-06T20:28:22.734Z,3.00
2019-05-06T20:30:52.908Z,2.80
2019-05-06T20:33:22.071Z,3.12
2019-05-06T20:35:52.584Z,3.13
2019-05-06T20:38:23.098Z,3.20
2019-05-06T20:40:51.215Z,2.85
2019-05-06T20:43:23.219Z,3.20
2019-05-06T20:45:52.075Z,3.35
2019-05-06T20:48:20.318Z,3.65
2019-05-06T20:50:48.899Z,3.67
2019-05-06T20:53:18.477Z,3.90
2019-05-06T20:55:47.040Z,4.05
2019-05-06T20:58:16.405Z,3.42
2019-05-06T21:00:44.946Z,3.83
2019-05-06T21:03:13.622Z,3.50
2019-05-06T21:05:43.475Z,3.30
2019-05-06T21:08:13.030Z,2.75
2019-05-06T21:10:42.584Z,3.47
2019-05-06T21:13:13.366Z,3.58
2019-05-06T21:15:43.255Z,3.60
2019-05-06T21:18:12.231Z,3.87
2019-05-06T21:20:43.324Z,3.40
2019-05-06T21:23:11.274Z,3.72
2019-05-06T21:25:39.890Z,4.07
2019-05-06T21:28:08.469Z,3.10
2019-05-06T21:30:37.073Z,3.87
2019-05-06T21:33:05.601Z,3.33
2019-05-06T21:35:34.364Z,3.23
2019-05-06T21:38:03.050Z,4.10
2019-05-06T21:40:32.324Z,3.10
2019-05-06T21:43:02.104Z,3.43
2019-05-06T21:45:32.900Z,3.23
2019-05-06T21:48:02.761Z,3.20
2019-05-06T21:50:33.060Z,3.37
2019-05-06T21:53:02.740Z,4.10
2019-05-06T21:55:32.382Z,3.33
2019-05-06T21:58:02.152Z,3.77
2019-05-06T22:00:44.941Z,3.20
2019-05-06T22:03:13.673Z,3.30
2019-05-06T22:05:42.794Z,3.77
2019-05-06T22:08:12.848Z,3.02
2019-05-06T22:10:42.283Z,3.83
2019-05-06T22:13:12.550Z,3.62
2019-05-06T22:15:42.248Z,3.57
2019-05-06T22:18:12.420Z,3.08
2019-05-06T22:21:06.529Z,4.00
2019-05-06T22:23:51.191Z,3.33
2019-05-06T22:26:19.885Z,3.58
2019-05-06T22:28:48.549Z,3.62
2019-05-06T22:31:17.129Z,3.87
2019-05-06T22:33:45.767Z,3.05
2019-05-06T22:36:14.366Z,3.95
2019-05-06T22:38:44.292Z,3.67
2019-05-06T22:41:13.002Z,2.87
2019-05-06T22:43:42.471Z,3.60
2019-05-06T22:46:12.294Z,4.00
2019-05-06T22:48:43.136Z,3.52
2019-05-06T22:51:12.357Z,3.98
2019-05-06T22:53:42.492Z,3.43
2019-05-06T22:56:13.513Z,3.60
2019-05-06T22:58:42.734Z,3.97
2019-05-06T23:01:29.671Z,4.20
2019-05-06T23:03:58.554Z,4.53
2019-05-06T23:06:27.226Z,4.90
2019-05-06T23:08:55.738Z,4.47
2019-05-06T23:11:24.697Z,5.70
2019-05-06T23:13:53.217Z,5.50
2019-05-06T23:16:21.893Z,5.45
2019-05-06T23:18:52.375Z,5.78
2019-05-06T23:21:23.115Z,5.43
2019-05-06T23:23:54.456Z,4.85
2019-05-06T23:26:22.863Z,4.80
2019-05-06T23:28:52.617Z,5.05
2019-05-06T23:31:21.971Z,4.78
2019-05-06T23:33:53.407Z,5.07
2019-05-06T23:36:22.898Z,5.00
2019-05-06T23:39:12.532Z,5.42
2019-05-06T23:41:58.679Z,5.17
2019-05-06T23:44:46.316Z,4.33
2019-05-06T23:47:33.184Z,4.07
2019-05-06T23:50:19.777Z,5.03
2019-05-06T23:53:06.313Z,4.77
2019-05-06T23:55:52.660Z,4.25
2019-05-06T23:58:22.360Z,4.97
